Terminal Aerodrome Forecast
Issued by NWS

Home | Current Version | Previous Version | Text Only | Print | Product List | Glossary On
Versions: 1 2 3 4 5 6 7 8 9 10 11 12 13 14 15 16
000
FTUS42 TJSJ 310006 RRA
TAFJSJ
TAF
TJSJ 310006Z 3100/3124 09008KT P6SM FEW030 SCT120
     FM311450 06012KT P6SM FEW030
     FM312200 10006KT P6SM SCT030=

USA.gov is the U.S. government's official web portal to all federal, state and local government web resources and services.